createdAt,value
2017-11-17T00:01:16.725Z,19.80
2017-11-17T00:03:44.279Z,22.30
2017-11-17T00:06:11.831Z,22.23
2017-11-17T00:08:39.392Z,23.08
2017-11-17T00:11:06.962Z,22.40
2017-11-17T00:13:34.518Z,21.45
2017-11-17T00:16:02.089Z,20.35
2017-11-17T00:18:29.638Z,19.65
2017-11-17T00:20:57.210Z,22.65
2017-11-17T00:23:24.780Z,20.12
2017-11-17T00:25:52.339Z,22.25
2017-11-17T00:28:19.902Z,23.08
2017-11-17T00:30:47.446Z,22.95
2017-11-17T00:33:14.985Z,21.52
2017-11-17T00:35:42.544Z,23.95
2017-11-17T00:38:10.101Z,22.67
2017-11-17T00:40:37.690Z,21.23
2017-11-17T00:43:05.233Z,22.15
2017-11-17T00:45:32.795Z,23.25
2017-11-17T00:48:00.323Z,22.83
2017-11-17T00:50:27.872Z,20.92
2017-11-17T00:52:56.189Z,21.92
2017-11-17T00:55:23.718Z,22.92
2017-11-17T00:57:51.278Z,24.15
2017-11-17T01:00:18.807Z,21.98
2017-11-17T01:02:48.726Z,22.58
2017-11-17T01:05:17.038Z,21.12
2017-11-17T01:07:44.602Z,22.75
2017-11-17T01:10:12.138Z,20.98
2017-11-17T01:12:39.688Z,20.05
2017-11-17T01:15:07.257Z,21.83
2017-11-17T01:17:34.797Z,22.65
2017-11-17T01:20:02.369Z,22.50
2017-11-17T01:22:29.907Z,22.35
2017-11-17T01:24:57.473Z,22.92
2017-11-17T01:27:25.020Z,24.15
2017-11-17T01:29:52.592Z,22.70
2017-11-17T01:32:20.126Z,24.73
2017-11-17T01:34:48.459Z,24.92
2017-11-17T01:37:15.995Z,22.67
2017-11-17T01:39:43.533Z,25.02
2017-11-17T01:42:11.861Z,23.40
2017-11-17T01:44:39.403Z,23.87
2017-11-17T01:47:06.969Z,24.37
2017-11-17T01:49:34.505Z,23.55
2017-11-17T01:52:02.062Z,22.00
2017-11-17T01:54:29.594Z,23.65
2017-11-17T01:56:57.948Z,22.02
2017-11-17T01:59:25.482Z,21.67
2017-11-17T02:01:53.053Z,23.52
2017-11-17T02:04:20.702Z,21.83
2017-11-17T02:06:48.278Z,23.10
2017-11-17T02:09:15.838Z,22.48
2017-11-17T02:11:43.382Z,22.35
2017-11-17T02:14:10.938Z,20.20
2017-11-17T02:16:38.474Z,23.15
2017-11-17T02:19:06.025Z,23.27
2017-11-17T02:21:34.351Z,21.15
2017-11-17T02:24:01.892Z,21.55
2017-11-17T02:26:29.451Z,22.60
2017-11-17T02:28:56.998Z,23.42
2017-11-17T02:31:24.575Z,23.95
2017-11-17T02:33:52.111Z,24.92
2017-11-17T02:36:19.663Z,23.70
2017-11-17T02:38:48.176Z,22.13
2017-11-17T02:41:15.723Z,23.02
2017-11-17T02:43:43.264Z,21.00
2017-11-17T02:46:10.797Z,22.45
2017-11-17T02:48:38.350Z,26.15
2017-11-17T02:51:05.890Z,24.15
2017-11-17T02:53:33.447Z,22.25
2017-11-17T02:56:00.980Z,26.12
2017-11-17T02:58:28.570Z,23.48
2017-11-17T03:00:56.111Z,22.92
2017-11-17T03:03:23.669Z,25.58
2017-11-17T03:05:51.201Z,24.83
2017-11-17T03:08:18.740Z,24.67
2017-11-17T03:10:46.294Z,26.40
2017-11-17T03:13:13.847Z,26.77
2017-11-17T03:15:41.407Z,24.42
2017-11-17T03:18:08.977Z,22.00
2017-11-17T03:20:36.530Z,23.80
2017-11-17T03:23:04.067Z,22.92
2017-11-17T03:25:32.418Z,21.83
2017-11-17T03:27:59.964Z,24.63
2017-11-17T03:30:27.527Z,21.20
2017-11-17T03:32:55.064Z,20.33
2017-11-17T03:35:22.610Z,23.45
2017-11-17T03:37:50.170Z,22.67
2017-11-17T03:40:17.738Z,22.73
2017-11-17T03:42:45.321Z,23.65
2017-11-17T03:45:12.869Z,19.55
2017-11-17T03:47:40.445Z,18.90
2017-11-17T03:50:07.994Z,21.17
2017-11-17T03:52:35.527Z,18.50
2017-11-17T03:55:03.082Z,18.62
2017-11-17T03:57:30.636Z,18.92
2017-11-17T03:59:58.189Z,20.23
2017-11-17T04:02:25.742Z,19.27
2017-11-17T04:04:53.286Z,17.92
2017-11-17T04:07:20.836Z,19.27
2017-11-17T04:09:48.374Z,20.27
2017-11-17T04:12:16.710Z,21.37
2017-11-17T04:14:44.238Z,22.42
2017-11-17T04:17:11.818Z,17.98
2017-11-17T04:19:39.372Z,19.08
2017-11-17T04:22:06.927Z,20.52
2017-11-17T04:24:34.482Z,22.60
2017-11-17T04:27:02.047Z,20.62
2017-11-17T04:29:29.625Z,20.10
2017-11-17T04:31:57.177Z,19.23
2017-11-17T04:34:24.738Z,20.62
2017-11-17T04:36:52.294Z,20.73
2017-11-17T04:39:19.847Z,20.12
2017-11-17T04:41:47.426Z,22.52
2017-11-17T04:44:14.975Z,21.65
2017-11-17T04:46:42.529Z,22.98
2017-11-17T04:49:10.085Z,26.75
2017-11-17T04:51:37.630Z,24.58
2017-11-17T04:54:05.188Z,24.90
2017-11-17T04:56:32.719Z,27.23
2017-11-17T04:59:01.056Z,25.95
2017-11-17T05:01:28.621Z,27.17
2017-11-17T05:03:56.174Z,28.77
2017-11-17T05:06:23.734Z,27.30
2017-11-17T05:08:51.292Z,26.80
2017-11-17T05:11:18.938Z,27.30
2017-11-17T05:13:46.495Z,27.25
2017-11-17T05:16:14.041Z,28.33
2017-11-17T05:18:41.602Z,26.20
2017-11-17T05:21:09.138Z,27.05
2017-11-17T05:23:37.491Z,25.45
2017-11-17T05:26:05.042Z,27.00
2017-11-17T05:28:32.584Z,26.17
2017-11-17T05:31:00.162Z,25.92
2017-11-17T05:33:28.515Z,25.42
2017-11-17T05:35:56.063Z,28.17
2017-11-17T05:38:23.634Z,22.90
2017-11-17T05:40:51.203Z,23.98
2017-11-17T05:43:18.765Z,27.15
2017-11-17T05:45:46.306Z,26.77
2017-11-17T05:48:13.859Z,22.73
2017-11-17T05:50:41.457Z,24.60
2017-11-17T05:53:08.993Z,24.45
2017-11-17T05:55:36.570Z,25.88
2017-11-17T05:58:04.118Z,26.17
2017-11-17T06:00:31.695Z,26.87
2017-11-17T06:02:59.241Z,28.75
2017-11-17T06:05:26.896Z,28.45
2017-11-17T06:07:54.835Z,29.12
2017-11-17T06:10:23.130Z,30.85
2017-11-17T06:12:50.686Z,26.65
2017-11-17T06:15:18.222Z,30.30
2017-11-17T06:17:46.556Z,29.12
2017-11-17T06:20:14.099Z,30.62
2017-11-17T06:22:41.652Z,30.90
2017-11-17T06:25:09.188Z,28.85
2017-11-17T06:27:36.735Z,28.17
2017-11-17T06:30:05.072Z,28.27
2017-11-17T06:32:32.594Z,23.55
2017-11-17T06:35:00.151Z,25.10
2017-11-17T06:37:27.680Z,24.77
2017-11-17T06:39:55.997Z,24.27
2017-11-17T06:42:23.534Z,27.02
2017-11-17T06:44:51.858Z,26.33
2017-11-17T06:47:19.391Z,27.42
2017-11-17T06:49:46.951Z,24.17
2017-11-17T06:52:14.477Z,23.73
2017-11-17T06:54:42.798Z,21.15
2017-11-17T06:57:10.343Z,22.02
2017-11-17T06:59:37.888Z,23.95
2017-11-17T07:02:05.429Z,23.65
2017-11-17T07:04:33.776Z,23.20
2017-11-17T07:07:01.319Z,23.77
2017-11-17T07:09:28.860Z,23.62
2017-11-17T07:11:56.438Z,24.45
2017-11-17T07:14:23.980Z,25.23
2017-11-17T07:16:51.538Z,24.98
2017-11-17T07:19:19.070Z,22.67
2017-11-17T07:21:47.380Z,25.60
2017-11-17T07:24:14.961Z,23.30
2017-11-17T07:26:42.508Z,25.52
2017-11-17T07:29:10.049Z,25.70
2017-11-17T07:31:37.610Z,24.42
2017-11-17T07:34:05.158Z,22.85
2017-11-17T07:36:33.479Z,25.52
2017-11-17T07:39:01.005Z,23.73
2017-11-17T07:41:28.560Z,25.00
2017-11-17T07:43:56.114Z,26.98
2017-11-17T07:46:23.843Z,26.50
2017-11-17T07:48:51.394Z,24.17
2017-11-17T07:51:18.934Z,24.95
2017-11-17T07:53:46.497Z,25.85
2017-11-17T07:56:14.047Z,26.23
2017-11-17T07:58:41.646Z,26.37
2017-11-17T08:01:09.958Z,25.15
2017-11-17T08:03:37.519Z,25.52
2017-11-17T08:06:05.860Z,25.83
2017-11-17T08:08:33.407Z,25.58
2017-11-17T08:11:00.959Z,26.67
2017-11-17T08:13:28.504Z,25.65
2017-11-17T08:15:56.060Z,22.37
2017-11-17T08:18:46.361Z,21.87
2017-11-17T08:21:13.920Z,23.40
2017-11-17T08:23:41.448Z,24.37
2017-11-17T08:26:08.994Z,23.65
2017-11-17T08:28:37.319Z,23.73
2017-11-17T08:31:04.881Z,23.15
2017-11-17T08:33:32.432Z,23.27
2017-11-17T08:35:59.979Z,22.75
2017-11-17T08:38:27.532Z,23.52
2017-11-17T08:40:55.105Z,23.42
2017-11-17T08:43:22.637Z,24.25
2017-11-17T08:45:50.971Z,22.00
2017-11-17T08:48:18.536Z,22.23
2017-11-17T08:50:46.103Z,21.35
2017-11-17T08:53:13.657Z,22.52
2017-11-17T08:55:41.218Z,24.30
2017-11-17T08:58:08.787Z,23.25
2017-11-17T09:00:36.358Z,19.92
2017-11-17T09:03:04.663Z,26.00
2017-11-17T09:05:32.226Z,25.88
2017-11-17T09:07:59.805Z,24.23
2017-11-17T09:10:27.347Z,22.00
2017-11-17T09:12:54.911Z,23.80
2017-11-17T09:15:22.469Z,24.65
2017-11-17T09:17:50.008Z,20.55
2017-11-17T09:20:18.360Z,22.48
2017-11-17T09:22:45.928Z,21.80
2017-11-17T09:25:14.283Z,22.30
2017-11-17T09:27:41.827Z,22.00
2017-11-17T09:30:09.385Z,20.35
2017-11-17T09:32:36.939Z,22.08
2017-11-17T09:35:04.503Z,20.30
2017-11-17T09:37:32.082Z,20.05
2017-11-17T09:39:59.603Z,22.15
2017-11-17T09:42:27.151Z,19.98
2017-11-17T09:44:54.688Z,22.90
2017-11-17T09:47:23.009Z,22.33
2017-11-17T09:49:50.562Z,22.25
2017-11-17T09:52:18.124Z,23.45
2017-11-17T09:54:45.668Z,22.08
2017-11-17T09:57:13.995Z,22.50
2017-11-17T09:59:41.538Z,22.60
2017-11-17T10:02:09.106Z,20.90
2017-11-17T10:04:36.650Z,20.48
2017-11-17T10:07:04.187Z,21.20
2017-11-17T10:09:31.747Z,22.42
2017-11-17T10:11:59.309Z,20.58
2017-11-17T10:14:26.879Z,20.40
2017-11-17T10:16:54.410Z,21.25
2017-11-17T10:19:22.745Z,21.48
2017-11-17T10:21:50.299Z,24.33
2017-11-17T10:24:17.834Z,23.75
2017-11-17T10:26:45.383Z,24.65
2017-11-17T10:29:12.955Z,23.90
2017-11-17T10:31:40.495Z,22.48
2017-11-17T10:34:08.834Z,24.10
2017-11-17T10:36:36.390Z,24.67
2017-11-17T10:39:03.962Z,21.85
2017-11-17T10:41:31.541Z,24.23
2017-11-17T10:43:59.857Z,24.83
2017-11-17T10:46:27.451Z,23.27
2017-11-17T10:48:54.988Z,23.25
2017-11-17T10:51:22.543Z,23.92
2017-11-17T10:53:50.074Z,25.37
2017-11-17T10:56:34.415Z,24.45
2017-11-17T10:59:04.761Z,23.23
2017-11-17T11:01:32.340Z,22.65
2017-11-17T11:03:59.870Z,25.75
2017-11-17T11:06:27.412Z,24.23
2017-11-17T11:08:55.736Z,24.85
2017-11-17T11:11:28.922Z,24.40
2017-11-17T11:13:56.471Z,21.10
2017-11-17T11:16:24.047Z,21.23
2017-11-17T11:18:51.607Z,23.08
2017-11-17T11:21:19.149Z,18.37
2017-11-17T11:23:46.708Z,19.45
2017-11-17T11:26:14.269Z,18.85
2017-11-17T11:28:41.854Z,20.45
2017-11-17T11:31:09.387Z,16.25
2017-11-17T11:33:36.949Z,18.55
2017-11-17T11:36:04.490Z,15.80
2017-11-17T11:38:32.816Z,16.48
2017-11-17T11:41:00.367Z,14.98
2017-11-17T11:43:27.905Z,15.45
2017-11-17T11:45:55.466Z,14.23
2017-11-17T11:48:22.994Z,16.10
2017-11-17T11:50:51.327Z,14.50
2017-11-17T11:53:18.877Z,14.30
2017-11-17T11:55:46.419Z,16.23
2017-11-17T11:58:14.601Z,14.95
2017-11-17T12:00:42.175Z,14.40
2017-11-17T12:03:09.718Z,15.70
2017-11-17T12:05:37.274Z,14.10
2017-11-17T12:08:04.823Z,14.65
2017-11-17T12:10:33.127Z,13.77
2017-11-17T12:13:00.687Z,12.27
2017-11-17T12:15:28.247Z,15.43
2017-11-17T12:17:55.802Z,13.85
2017-11-17T12:20:23.365Z,14.20
2017-11-17T12:22:50.929Z,17.55
2017-11-17T12:25:18.470Z,16.05
2017-11-17T12:27:46.031Z,14.52
2017-11-17T12:30:13.573Z,16.60
2017-11-17T12:32:41.143Z,16.25
2017-11-17T12:35:08.678Z,15.02
2017-11-17T12:37:36.991Z,16.17
2017-11-17T12:40:04.542Z,16.30
2017-11-17T12:42:32.116Z,16.70
2017-11-17T12:44:59.676Z,19.98
2017-11-17T12:47:27.205Z,17.27
2017-11-17T12:49:55.494Z,20.10
2017-11-17T12:52:23.058Z,18.42
2017-11-17T12:54:50.612Z,18.75
2017-11-17T12:57:18.352Z,19.55
2017-11-17T12:59:45.887Z,18.50
2017-11-17T13:02:13.438Z,16.10
2017-11-17T13:04:40.973Z,17.70
2017-11-17T13:07:08.534Z,20.20
2017-11-17T13:09:36.074Z,20.58
2017-11-17T13:12:03.623Z,18.80
2017-11-17T13:14:31.920Z,15.88
2017-11-17T13:16:59.495Z,19.52
2017-11-17T13:19:28.643Z,16.70
2017-11-17T13:21:56.202Z,19.12
2017-11-17T13:24:23.737Z,18.37
2017-11-17T13:26:51.291Z,18.70
2017-11-17T13:29:18.850Z,17.15
2017-11-17T13:31:46.383Z,16.12
2017-11-17T13:34:13.943Z,15.60
2017-11-17T13:36:41.470Z,19.12
2017-11-17T13:39:09.785Z,22.17
2017-11-17T13:41:37.332Z,20.42
2017-11-17T13:44:04.899Z,19.23
2017-11-17T13:46:32.446Z,18.92
2017-11-17T13:49:00.013Z,17.50
2017-11-17T13:51:27.562Z,17.08
2017-11-17T13:53:55.126Z,22.40
2017-11-17T13:56:22.688Z,21.77
2017-11-17T13:58:50.234Z,22.08
2017-11-17T14:01:17.799Z,21.45
2017-11-17T14:03:45.371Z,20.42
2017-11-17T14:06:12.907Z,18.25
2017-11-17T14:08:41.227Z,20.80
2017-11-17T14:11:08.793Z,19.33
2017-11-17T14:13:36.350Z,20.73
2017-11-17T14:16:03.898Z,23.25
2017-11-17T14:18:31.565Z,23.77
2017-11-17T14:20:59.122Z,25.92
2017-11-17T14:23:26.774Z,23.95
2017-11-17T14:25:54.338Z,23.05
2017-11-17T14:28:21.910Z,23.95
2017-11-17T14:30:49.468Z,25.55
2017-11-17T14:33:17.015Z,24.73
2017-11-17T14:35:44.563Z,22.90
2017-11-17T14:38:12.131Z,22.35
2017-11-17T14:40:39.660Z,23.75
2017-11-17T14:43:07.219Z,20.33
2017-11-17T14:45:34.762Z,24.50
2017-11-17T14:48:05.087Z,24.12
2017-11-17T14:50:32.636Z,24.65
2017-11-17T14:53:00.971Z,25.98
2017-11-17T14:55:28.508Z,24.20
2017-11-17T14:57:56.073Z,24.90
2017-11-17T15:00:23.628Z,25.55
2017-11-17T15:02:51.214Z,26.87
2017-11-17T15:05:18.773Z,27.87
2017-11-17T15:07:46.806Z,25.83
2017-11-17T15:10:14.359Z,21.60
2017-11-17T15:12:41.898Z,25.10
2017-11-17T15:15:10.239Z,26.48
2017-11-17T15:17:37.796Z,22.23
2017-11-17T15:20:05.338Z,22.08
2017-11-17T15:22:32.924Z,24.70
2017-11-17T15:25:00.476Z,22.00
2017-11-17T15:27:28.024Z,20.35
2017-11-17T15:29:55.561Z,23.85
2017-11-17T15:32:23.120Z,29.15
2017-11-17T15:34:50.670Z,27.95
2017-11-17T15:37:18.981Z,29.00
2017-11-17T15:39:46.553Z,27.20
2017-11-17T15:42:14.095Z,30.62
2017-11-17T15:44:41.648Z,25.40
2017-11-17T15:47:09.189Z,26.05
2017-11-17T15:49:36.759Z,32.50
2017-11-17T15:52:04.322Z,30.05
2017-11-17T15:54:32.038Z,26.35
2017-11-17T15:56:59.586Z,30.10
2017-11-17T15:59:27.111Z,28.92
2017-11-17T16:01:54.682Z,26.45
2017-11-17T16:04:22.222Z,29.12
2017-11-17T16:06:49.780Z,29.08
2017-11-17T16:09:17.317Z,30.83
2017-11-17T16:11:45.630Z,31.52
2017-11-17T16:14:13.199Z,30.15
2017-11-17T16:16:40.758Z,28.55
2017-11-17T16:19:08.339Z,26.37
2017-11-17T16:21:35.887Z,27.25
2017-11-17T16:24:03.431Z,31.45
2017-11-17T16:26:30.979Z,29.73
2017-11-17T16:28:58.550Z,28.02
2017-11-17T16:31:26.080Z,27.87
2017-11-17T16:33:54.402Z,29.50
2017-11-17T16:36:21.952Z,28.02
2017-11-17T16:38:49.508Z,26.08
2017-11-17T16:41:17.107Z,28.25
2017-11-17T16:43:45.431Z,30.90
2017-11-17T16:46:13.018Z,28.85
2017-11-17T16:48:40.568Z,28.35
2017-11-17T16:51:08.132Z,28.40
2017-11-17T16:53:35.714Z,30.08
2017-11-17T16:56:03.276Z,30.30
2017-11-17T16:58:30.856Z,29.70
2017-11-17T17:00:59.159Z,34.10
2017-11-17T17:03:26.764Z,30.25
2017-11-17T17:05:54.295Z,28.73
2017-11-17T17:08:21.862Z,27.62
2017-11-17T17:10:49.405Z,29.08
2017-11-17T17:13:16.975Z,27.73
2017-11-17T17:15:44.550Z,29.15
2017-11-17T17:18:12.093Z,28.62
2017-11-17T17:20:39.681Z,28.60
2017-11-17T17:23:07.254Z,31.45
2017-11-17T17:25:34.800Z,29.30
2017-11-17T17:28:02.347Z,32.80
2017-11-17T17:30:29.910Z,27.65
2017-11-17T17:32:57.468Z,28.38
2017-11-17T17:35:25.028Z,30.65
2017-11-17T17:37:52.579Z,28.87
2017-11-17T17:40:20.115Z,29.95
2017-11-17T17:42:47.694Z,31.27
2017-11-17T17:45:15.277Z,27.10
2017-11-17T17:47:42.807Z,30.98
2017-11-17T17:50:10.363Z,38.28
2017-11-17T17:52:39.347Z,41.88
2017-11-17T17:55:06.927Z,39.97
2017-11-17T17:57:34.497Z,40.10
2017-11-17T18:00:02.081Z,34.35
2017-11-17T18:02:29.613Z,34.53
2017-11-17T18:04:57.183Z,32.92
2017-11-17T18:07:24.746Z,36.83
2017-11-17T18:09:52.278Z,31.35
2017-11-17T18:12:19.837Z,31.60
2017-11-17T18:14:47.373Z,34.70
2017-11-17T18:17:15.694Z,34.50
2017-11-17T18:19:43.244Z,34.88
2017-11-17T18:22:10.799Z,31.23
2017-11-17T18:24:38.362Z,32.38
2017-11-17T18:27:05.946Z,31.30
2017-11-17T18:29:33.492Z,31.40
2017-11-17T18:32:01.608Z,29.90
2017-11-17T18:34:29.162Z,30.88
2017-11-17T18:36:56.747Z,29.63
2017-11-17T18:39:25.055Z,31.90
2017-11-17T18:41:52.724Z,29.35
2017-11-17T18:44:20.361Z,33.65
2017-11-17T18:46:47.961Z,32.88
2017-11-17T18:49:16.235Z,34.55
2017-11-17T18:51:43.811Z,36.92
2017-11-17T18:54:11.353Z,36.83
2017-11-17T18:56:38.931Z,41.45
2017-11-17T18:59:06.545Z,37.15
2017-11-17T19:01:34.894Z,38.03
2017-11-17T19:04:02.467Z,40.53
2017-11-17T19:06:30.790Z,39.97
2017-11-17T19:08:58.374Z,38.92
2017-11-17T19:11:26.011Z,39.88
2017-11-17T19:13:54.404Z,42.53
2017-11-17T19:16:21.956Z,40.22
2017-11-17T19:18:49.522Z,41.80
2017-11-17T19:21:17.065Z,43.00
2017-11-17T19:23:44.661Z,44.83
2017-11-17T19:26:12.214Z,40.63
2017-11-17T19:28:39.775Z,43.53
2017-11-17T19:31:07.340Z,40.90
2017-11-17T19:33:34.910Z,41.72
2017-11-17T19:36:03.303Z,40.65
2017-11-17T19:38:31.631Z,45.35
2017-11-17T19:40:59.195Z,44.25
2017-11-17T19:43:26.739Z,38.78
2017-11-17T19:45:54.315Z,40.17
2017-11-17T19:48:21.858Z,39.90
2017-11-17T19:50:49.432Z,39.75
2017-11-17T19:53:16.977Z,42.13
2017-11-17T19:55:44.526Z,46.88
2017-11-17T19:58:12.070Z,44.60
2017-11-17T20:00:39.635Z,44.90
2017-11-17T20:03:07.178Z,38.58
2017-11-17T20:05:35.498Z,42.97
2017-11-17T20:08:03.045Z,42.75
2017-11-17T20:10:33.626Z,42.90
2017-11-17T20:13:01.211Z,48.35
2017-11-17T20:15:29.538Z,41.40
2017-11-17T20:17:57.119Z,46.53
2017-11-17T20:20:24.655Z,45.70
2017-11-17T20:22:52.228Z,40.50
2017-11-17T20:25:19.777Z,42.03
2017-11-17T20:27:47.357Z,42.80
2017-11-17T20:30:14.915Z,46.25
2017-11-17T20:32:42.526Z,46.50
2017-11-17T20:35:10.101Z,52.17
2017-11-17T20:37:37.657Z,42.97
2017-11-17T20:40:05.253Z,47.88
2017-11-17T20:42:32.992Z,44.40
2017-11-17T20:45:00.568Z,43.58
2017-11-17T20:47:28.128Z,42.97
2017-11-17T20:49:55.687Z,40.33
2017-11-17T20:52:23.235Z,43.53
2017-11-17T20:54:50.807Z,39.00
2017-11-17T20:57:18.357Z,40.15
2017-11-17T20:59:45.935Z,35.65
2017-11-17T21:02:13.473Z,34.42
2017-11-17T21:04:41.051Z,33.25
2017-11-17T21:07:08.638Z,41.85
2017-11-17T21:09:36.947Z,39.70
2017-11-17T21:12:04.531Z,38.42
2017-11-17T21:14:32.079Z,42.55
2017-11-17T21:16:59.663Z,40.60
2017-11-17T21:19:27.250Z,35.58
2017-11-17T21:21:54.847Z,34.55
2017-11-17T21:24:22.453Z,35.72
2017-11-17T21:26:50.009Z,32.58
2017-11-17T21:29:17.563Z,31.17
2017-11-17T21:31:45.151Z,34.92
2017-11-17T21:34:12.719Z,33.80
2017-11-17T21:36:41.030Z,31.60
2017-11-17T21:39:08.574Z,28.02
2017-11-17T21:41:36.891Z,27.83
2017-11-17T21:44:04.458Z,25.70
2017-11-17T21:46:32.022Z,25.02
2017-11-17T21:48:59.565Z,23.17
2017-11-17T21:51:27.141Z,21.87
2017-11-17T21:53:54.681Z,21.42
2017-11-17T21:56:22.290Z,20.10
2017-11-17T21:58:49.822Z,19.23
2017-11-17T22:01:17.387Z,18.65
2017-11-17T22:03:44.933Z,19.73
2017-11-17T22:06:12.502Z,20.25
2017-11-17T22:08:40.062Z,21.92
2017-11-17T22:11:07.623Z,25.20
2017-11-17T22:13:35.207Z,25.00
2017-11-17T22:16:02.755Z,25.65
2017-11-17T22:18:31.179Z,25.27
2017-11-17T22:20:58.736Z,23.83
2017-11-17T22:23:26.285Z,29.75
2017-11-17T22:25:53.951Z,27.67
2017-11-17T22:28:21.755Z,28.30
2017-11-17T22:30:49.290Z,30.62
2017-11-17T22:33:16.874Z,31.95
2017-11-17T22:35:44.424Z,33.65
2017-11-17T22:38:13.511Z,34.72
2017-11-17T22:40:41.067Z,30.60
2017-11-17T22:43:08.626Z,32.03
2017-11-17T22:45:36.182Z,34.47
2017-11-17T22:48:03.754Z,33.63
2017-11-17T22:50:31.295Z,35.15
2017-11-17T22:52:58.830Z,32.60
2017-11-17T22:55:26.381Z,29.73
2017-11-17T22:57:54.694Z,31.23
2017-11-17T23:00:22.248Z,29.60
2017-11-17T23:02:49.795Z,29.37
2017-11-17T23:05:17.358Z,25.67
2017-11-17T23:07:44.915Z,28.33
2017-11-17T23:10:12.506Z,27.90
2017-11-17T23:12:40.053Z,24.92
2017-11-17T23:15:08.383Z,28.08
2017-11-17T23:17:36.200Z,26.42
2017-11-17T23:20:04.527Z,29.65
2017-11-17T23:22:32.083Z,25.58
2017-11-17T23:24:59.647Z,23.55
2017-11-17T23:27:27.173Z,25.70
2017-11-17T23:29:54.752Z,29.20
2017-11-17T23:32:22.367Z,21.37
2017-11-17T23:34:50.682Z,24.08
2017-11-17T23:37:18.238Z,27.98
2017-11-17T23:39:45.770Z,27.40
2017-11-17T23:42:14.103Z,30.65
2017-11-17T23:44:41.640Z,30.77
2017-11-17T23:47:09.205Z,27.55
2017-11-17T23:49:36.742Z,30.35
2017-11-17T23:52:04.309Z,35.10
2017-11-17T23:54:31.888Z,35.53
2017-11-17T23:56:59.472Z,29.67
2017-11-17T23:59:27.018Z,25.48
